createdAt,value
2023-04-17T00:01:09.779Z,16.30
2023-04-17T00:03:36.623Z,16.27
2023-04-17T00:06:03.597Z,17.50
2023-04-17T00:08:31.130Z,16.00
2023-04-17T00:11:07.120Z,15.52
2023-04-17T00:13:35.081Z,16.15
2023-04-17T00:16:01.709Z,16.08
2023-04-17T00:18:28.289Z,12.60
2023-04-17T00:20:56.319Z,18.00
2023-04-17T00:23:22.921Z,17.63
2023-04-17T00:25:49.504Z,17.63
2023-04-17T00:28:16.095Z,13.63
2023-04-17T00:30:42.774Z,15.93
2023-04-17T00:33:09.323Z,14.75
2023-04-17T00:35:35.959Z,15.10
2023-04-17T00:38:02.560Z,16.58
2023-04-17T00:40:29.071Z,16.75
2023-04-17T00:43:06.638Z,15.27
2023-04-17T00:45:33.281Z,17.52
2023-04-17T00:48:01.566Z,14.57
2023-04-17T00:50:28.898Z,16.10
2023-04-17T00:52:56.043Z,13.80
2023-04-17T00:55:22.911Z,15.45
2023-04-17T00:57:49.708Z,15.80
2023-04-17T01:00:18.137Z,17.23
2023-04-17T01:02:45.851Z,15.63
2023-04-17T01:05:13.038Z,16.33
2023-04-17T01:07:41.339Z,15.10
2023-04-17T01:10:08.698Z,14.70
2023-04-17T01:12:36.431Z,13.82
2023-04-17T01:15:03.781Z,15.45
2023-04-17T01:17:30.778Z,16.17
2023-04-17T01:19:57.841Z,15.90
2023-04-17T01:22:25.037Z,18.25
2023-04-17T01:24:51.839Z,14.88
2023-04-17T01:27:18.380Z,15.02
2023-04-17T01:29:45.474Z,15.50
2023-04-17T01:32:12.471Z,15.40
2023-04-17T01:34:39.009Z,16.45
2023-04-17T01:37:05.618Z,13.15
2023-04-17T01:39:32.321Z,15.75
2023-04-17T01:41:58.941Z,16.13
2023-04-17T01:44:25.588Z,14.07
2023-04-17T01:46:52.316Z,14.98
2023-04-17T01:49:19.078Z,18.70
2023-04-17T01:51:45.754Z,16.67
2023-04-17T01:54:12.339Z,17.35
2023-04-17T01:56:38.887Z,15.63
2023-04-17T01:59:05.698Z,16.80
2023-04-17T02:01:32.738Z,17.30
2023-04-17T02:03:59.717Z,16.42
2023-04-17T02:06:27.452Z,20.65
2023-04-17T02:08:54.148Z,17.63
2023-04-17T02:11:21.010Z,18.38
2023-04-17T02:13:47.595Z,17.58
2023-04-17T02:16:14.466Z,18.23
2023-04-17T02:18:41.457Z,15.68
2023-04-17T02:21:09.724Z,18.48
2023-04-17T02:23:36.764Z,17.75
2023-04-17T02:26:03.554Z,18.23
2023-04-17T02:28:30.284Z,14.68
2023-04-17T02:30:57.331Z,15.85
2023-04-17T02:33:24.409Z,19.13
2023-04-17T02:35:51.554Z,16.73
2023-04-17T02:38:18.213Z,19.75
2023-04-17T02:40:44.747Z,17.00
2023-04-17T02:43:14.087Z,14.40
2023-04-17T02:45:40.667Z,17.77
2023-04-17T02:48:07.423Z,18.27
2023-04-17T02:50:34.213Z,15.82
2023-04-17T02:53:00.848Z,16.40
2023-04-17T02:55:27.403Z,17.27
2023-04-17T02:57:54.091Z,17.05
2023-04-17T03:00:21.004Z,17.42
2023-04-17T03:02:48.056Z,15.07
2023-04-17T03:05:16.685Z,17.10
2023-04-17T03:07:43.525Z,18.63
2023-04-17T03:10:10.404Z,17.50
2023-04-17T03:12:37.314Z,16.48
2023-04-17T03:15:04.179Z,17.40
2023-04-17T03:17:30.895Z,17.38
2023-04-17T03:19:57.419Z,15.88
2023-04-17T03:22:24.165Z,16.23
2023-04-17T03:24:50.764Z,16.13
2023-04-17T03:27:17.260Z,19.02
2023-04-17T03:29:43.973Z,17.15
2023-04-17T03:32:10.937Z,16.15
2023-04-17T03:34:38.281Z,16.23
2023-04-17T03:37:05.201Z,16.30
2023-04-17T03:39:31.733Z,15.10
2023-04-17T03:41:58.288Z,16.05
2023-04-17T03:44:24.984Z,14.48
2023-04-17T03:46:51.581Z,16.30
2023-04-17T03:49:18.111Z,16.08
2023-04-17T03:51:44.995Z,16.02
2023-04-17T03:54:11.677Z,14.73
2023-04-17T03:56:38.313Z,16.15
2023-04-17T03:59:05.120Z,15.57
2023-04-17T04:01:32.855Z,17.50
2023-04-17T04:04:00.084Z,13.75
2023-04-17T04:06:29.875Z,14.20
2023-04-17T04:08:57.185Z,15.50
2023-04-17T04:11:23.837Z,16.70
2023-04-17T04:13:50.848Z,15.82
2023-04-17T04:16:17.487Z,15.00
2023-04-17T04:18:44.133Z,14.70
2023-04-17T04:21:12.347Z,16.58
2023-04-17T04:23:41.476Z,16.52
2023-04-17T04:26:08.422Z,17.70
2023-04-17T04:28:35.276Z,17.35
2023-04-17T04:31:02.881Z,15.63
2023-04-17T04:33:29.855Z,16.17
2023-04-17T04:36:01.271Z,16.58
2023-04-17T04:38:32.893Z,17.55
2023-04-17T04:41:10.093Z,16.65
2023-04-17T04:43:37.104Z,16.65
2023-04-17T04:46:03.998Z,17.15
2023-04-17T04:48:30.608Z,15.25
2023-04-17T04:50:57.224Z,14.90
2023-04-17T04:53:24.037Z,16.75
2023-04-17T04:55:50.690Z,14.88
2023-04-17T04:58:17.208Z,14.00
2023-04-17T05:00:44.137Z,16.48
2023-04-17T05:03:11.188Z,13.68
2023-04-17T05:05:38.350Z,19.20
2023-04-17T05:08:05.234Z,13.70
2023-04-17T05:10:31.843Z,13.90
2023-04-17T05:12:58.521Z,17.92
2023-04-17T05:15:25.124Z,14.93
2023-04-17T05:17:51.839Z,13.73
2023-04-17T05:20:18.875Z,14.82
2023-04-17T05:22:45.636Z,16.15
2023-04-17T05:25:12.428Z,14.82
2023-04-17T05:27:39.018Z,14.48
2023-04-17T05:30:06.191Z,15.95
2023-04-17T05:32:35.057Z,12.27
2023-04-17T05:35:01.779Z,14.82
2023-04-17T05:37:28.303Z,13.90
2023-04-17T05:39:54.874Z,15.50
2023-04-17T05:42:21.568Z,17.02
2023-04-17T05:44:48.148Z,15.30
2023-04-17T05:47:14.683Z,14.18
2023-04-17T05:49:42.507Z,14.25
2023-04-17T05:52:09.121Z,13.93
2023-04-17T05:54:35.891Z,13.25
2023-04-17T05:57:03.593Z,15.23
2023-04-17T05:59:30.120Z,15.52
2023-04-17T06:01:59.765Z,16.20
2023-04-17T06:04:26.696Z,14.70
2023-04-17T06:06:53.547Z,17.25
2023-04-17T06:09:20.122Z,14.43
2023-04-17T06:11:46.960Z,14.40
2023-04-17T06:14:13.534Z,14.85
2023-04-17T06:16:40.178Z,15.50
2023-04-17T06:19:06.701Z,15.60
2023-04-17T06:21:33.226Z,15.45
2023-04-17T06:23:59.910Z,14.98
2023-04-17T06:26:26.422Z,15.73
2023-04-17T06:28:52.930Z,16.40
2023-04-17T06:31:19.878Z,15.50
2023-04-17T06:33:47.782Z,12.50
2023-04-17T06:36:14.255Z,17.67
2023-04-17T06:38:41.100Z,17.75
2023-04-17T06:41:07.681Z,18.33
2023-04-17T06:43:34.734Z,17.92
2023-04-17T06:46:01.631Z,16.83
2023-04-17T06:48:28.369Z,16.85
2023-04-17T06:50:54.896Z,18.48
2023-04-17T06:53:21.753Z,17.30
2023-04-17T06:55:48.400Z,18.73
2023-04-17T06:58:15.024Z,16.98
2023-04-17T07:00:41.641Z,17.05
2023-04-17T07:03:08.352Z,19.08
2023-04-17T07:05:34.986Z,17.45
2023-04-17T07:08:01.634Z,18.27
2023-04-17T07:10:28.228Z,14.90
2023-04-17T07:12:55.279Z,19.98
2023-04-17T07:15:22.051Z,16.63
2023-04-17T07:17:48.683Z,16.63
2023-04-17T07:20:15.338Z,17.70
2023-04-17T07:22:43.262Z,20.08
2023-04-17T07:25:09.895Z,16.08
2023-04-17T07:27:38.399Z,20.50
2023-04-17T07:30:08.792Z,15.35
2023-04-17T07:32:36.242Z,17.83
2023-04-17T07:35:02.919Z,18.95
2023-04-17T07:37:29.556Z,18.73
2023-04-17T07:39:56.077Z,20.77
2023-04-17T07:42:22.678Z,16.88
2023-04-17T07:44:49.262Z,16.77
2023-04-17T07:47:15.924Z,19.50
2023-04-17T07:49:46.527Z,17.33
2023-04-17T07:52:13.806Z,18.55
2023-04-17T07:54:40.511Z,17.65
2023-04-17T07:57:08.265Z,16.00
2023-04-17T07:59:36.704Z,18.80
2023-04-17T08:02:03.851Z,20.13
2023-04-17T08:04:31.168Z,16.83
2023-04-17T08:06:58.039Z,19.45
2023-04-17T08:09:25.018Z,16.92
2023-04-17T08:11:57.571Z,20.40
2023-04-17T08:14:25.459Z,18.25
2023-04-17T08:16:52.359Z,18.23
2023-04-17T08:19:19.245Z,15.10
2023-04-17T08:21:49.477Z,18.00
2023-04-17T08:24:19.197Z,18.40
2023-04-17T08:26:46.437Z,17.48
2023-04-17T08:29:14.118Z,16.80
2023-04-17T08:31:41.379Z,14.48
2023-04-17T08:34:14.294Z,15.55
2023-04-17T08:36:42.864Z,17.40
2023-04-17T08:39:12.297Z,16.40
2023-04-17T08:41:48.032Z,15.63
2023-04-17T08:44:19.234Z,17.35
2023-04-17T08:46:46.971Z,16.52
2023-04-17T08:49:14.075Z,16.30
2023-04-17T08:51:41.682Z,16.10
2023-04-17T08:54:08.209Z,14.38
2023-04-17T08:56:34.830Z,14.10
2023-04-17T08:59:01.504Z,14.40
2023-04-17T09:01:29.789Z,13.98
2023-04-17T09:03:57.595Z,13.15
2023-04-17T09:06:24.263Z,11.27
2023-04-17T09:09:04.129Z,12.05
2023-04-17T09:11:30.905Z,12.88
2023-04-17T09:13:57.426Z,17.63
2023-04-17T09:16:25.936Z,12.23
2023-04-17T09:19:05.532Z,14.75
2023-04-17T09:21:32.438Z,12.00
2023-04-17T09:23:59.910Z,12.82
2023-04-17T09:26:27.908Z,14.88
2023-04-17T09:29:15.022Z,12.20
2023-04-17T09:31:43.131Z,13.80
2023-04-17T09:34:12.130Z,11.70
2023-04-17T09:36:41.843Z,11.38
2023-04-17T09:39:26.524Z,12.57
2023-04-17T09:42:04.247Z,12.45
2023-04-17T09:44:31.223Z,13.05
2023-04-17T09:46:59.007Z,12.00
2023-04-17T09:49:38.174Z,12.55
2023-04-17T09:52:06.273Z,14.65
2023-04-17T09:54:38.305Z,12.05
2023-04-17T09:57:08.922Z,11.48
2023-04-17T09:59:45.854Z,10.02
2023-04-17T10:02:17.987Z,11.40
2023-04-17T10:04:45.967Z,11.23
2023-04-17T10:07:13.315Z,10.98
2023-04-17T10:09:42.188Z,11.52
2023-04-17T10:12:16.974Z,12.45
2023-04-17T10:14:47.134Z,12.75
2023-04-17T10:17:25.289Z,13.55
2023-04-17T10:19:52.426Z,11.68
2023-04-17T10:22:19.018Z,11.90
2023-04-17T10:25:15.923Z,9.75
2023-04-17T10:27:45.488Z,12.10
2023-04-17T10:30:13.502Z,10.15
2023-04-17T10:32:42.945Z,11.18
2023-04-17T10:35:19.402Z,10.73
2023-04-17T10:37:50.228Z,11.05
2023-04-17T10:43:25.480Z,12.07
2023-04-17T10:45:57.134Z,11.65
2023-04-17T10:48:28.587Z,11.35
2023-04-17T10:50:58.383Z,10.40
2023-04-17T10:53:43.133Z,10.55
2023-04-17T10:56:12.127Z,11.98
2023-04-17T10:58:40.251Z,11.20
2023-04-17T11:01:11.959Z,10.30
2023-04-17T11:03:39.265Z,9.73
2023-04-17T11:06:07.881Z,10.02
2023-04-17T11:08:34.620Z,10.55
2023-04-17T11:11:01.360Z,10.25
2023-04-17T11:13:32.364Z,10.43
2023-04-17T11:15:59.651Z,9.05
2023-04-17T11:18:26.709Z,9.60
2023-04-17T11:20:53.496Z,10.30
2023-04-17T11:23:20.879Z,11.90
2023-04-17T11:25:47.557Z,13.52
2023-04-17T11:28:14.370Z,8.20
2023-04-17T11:30:45.270Z,9.80
2023-04-17T11:33:12.788Z,11.75
2023-04-17T11:35:41.497Z,10.77
2023-04-17T11:38:17.966Z,10.60
2023-04-17T11:40:52.951Z,13.07
2023-04-17T11:43:21.550Z,8.73
2023-04-17T11:45:53.808Z,8.52
2023-04-17T11:48:23.126Z,9.68
2023-04-17T11:50:50.335Z,8.75
2023-04-17T11:53:17.780Z,10.02
2023-04-17T11:55:45.425Z,8.82
2023-04-17T11:58:13.744Z,9.68
2023-04-17T12:00:41.346Z,9.35
2023-04-17T12:03:36.618Z,7.75
2023-04-17T12:06:05.193Z,10.18
2023-04-17T12:08:42.220Z,8.55
2023-04-17T12:13:41.342Z,9.55
2023-04-17T12:16:08.154Z,10.40
2023-04-17T12:18:34.763Z,10.15
2023-04-17T12:21:01.355Z,9.27
2023-04-17T12:23:28.252Z,12.02
2023-04-17T12:25:54.849Z,9.27
2023-04-17T12:28:22.198Z,12.95
2023-04-17T12:30:49.226Z,10.73
2023-04-17T12:33:16.179Z,9.88
2023-04-17T12:35:42.810Z,10.18
2023-04-17T12:38:09.617Z,9.80
2023-04-17T12:40:36.345Z,9.73
2023-04-17T12:43:04.251Z,8.98
2023-04-17T12:45:31.253Z,10.23
2023-04-17T12:47:58.004Z,8.52
2023-04-17T12:50:25.281Z,10.55
2023-04-17T12:52:52.027Z,9.93
2023-04-17T12:55:18.750Z,9.27
2023-04-17T12:57:46.254Z,8.55
2023-04-17T13:00:13.701Z,8.48
2023-04-17T13:02:40.516Z,7.53
2023-04-17T13:05:07.566Z,7.95
2023-04-17T13:07:34.407Z,7.68
2023-04-17T13:10:01.151Z,7.57
2023-04-17T13:12:27.815Z,6.30
2023-04-17T13:14:54.739Z,7.28
2023-04-17T13:17:22.040Z,7.05
2023-04-17T13:19:48.762Z,6.60
2023-04-17T13:22:16.347Z,7.28
2023-04-17T13:24:43.409Z,6.53
2023-04-17T13:27:10.606Z,8.82
2023-04-17T13:29:37.348Z,7.15
2023-04-17T13:32:04.208Z,8.18
2023-04-17T13:34:30.902Z,7.05
2023-04-17T13:36:57.951Z,7.45
2023-04-17T13:39:24.693Z,7.47
2023-04-17T13:41:51.426Z,7.22
2023-04-17T13:44:18.928Z,6.95
2023-04-17T13:46:45.873Z,7.30
2023-04-17T13:49:12.983Z,6.88
2023-04-17T13:51:40.134Z,7.03
2023-04-17T13:54:07.962Z,8.13
2023-04-17T13:56:34.627Z,9.40
2023-04-17T13:59:01.391Z,9.55
2023-04-17T14:01:28.232Z,8.00
2023-04-17T14:03:55.132Z,10.43
2023-04-17T14:06:22.058Z,8.13
2023-04-17T14:08:49.020Z,6.90
2023-04-17T14:11:17.386Z,7.30
2023-04-17T14:13:44.371Z,8.48
2023-04-17T14:16:11.253Z,10.18
2023-04-17T14:18:38.036Z,7.97
2023-04-17T14:21:05.202Z,8.50
2023-04-17T14:23:31.845Z,8.73
2023-04-17T14:25:59.066Z,8.23
2023-04-17T14:28:25.906Z,7.80
2023-04-17T14:30:52.592Z,7.50
2023-04-17T14:33:19.441Z,7.00
2023-04-17T14:35:46.220Z,7.25
2023-04-17T14:38:12.971Z,8.70
2023-04-17T14:40:39.692Z,7.25
2023-04-17T14:43:06.492Z,6.30
2023-04-17T14:45:34.611Z,6.43
2023-04-17T14:48:01.356Z,6.25
2023-04-17T14:50:28.099Z,7.53
2023-04-17T14:52:55.836Z,8.27
2023-04-17T14:55:25.566Z,6.20
2023-04-17T14:57:52.507Z,6.40
2023-04-17T15:00:20.895Z,6.43
2023-04-17T15:02:48.563Z,6.55
2023-04-17T15:05:20.314Z,8.02
2023-04-17T15:07:47.399Z,7.88
2023-04-17T15:10:15.025Z,6.72
2023-04-17T15:12:41.862Z,7.78
2023-04-17T15:15:08.990Z,6.65
2023-04-17T15:17:37.513Z,5.75
2023-04-17T15:20:06.029Z,5.53
2023-04-17T15:22:32.829Z,9.20
2023-04-17T15:24:59.523Z,5.95
2023-04-17T15:27:26.538Z,6.30
2023-04-17T15:29:53.267Z,6.32
2023-04-17T15:32:19.974Z,6.38
2023-04-17T15:34:47.742Z,7.13
2023-04-17T15:37:14.380Z,7.68
2023-04-17T15:39:41.143Z,6.05
2023-04-17T15:42:09.737Z,5.22
2023-04-17T15:44:37.786Z,6.30
2023-04-17T15:47:05.852Z,5.25
2023-04-17T15:49:32.794Z,6.72
2023-04-17T15:51:59.861Z,5.03
2023-04-17T15:54:26.784Z,6.57
2023-04-17T15:56:53.628Z,6.60
2023-04-17T15:59:20.830Z,5.20
2023-04-17T16:01:48.218Z,6.13
2023-04-17T16:04:15.412Z,5.53
2023-04-17T16:06:42.251Z,6.15
2023-04-17T16:09:09.961Z,5.07
2023-04-17T16:11:36.729Z,5.03
2023-04-17T16:14:03.505Z,5.10
2023-04-17T16:16:30.154Z,6.78
2023-04-17T16:18:57.853Z,4.43
2023-04-17T16:21:24.616Z,4.85
2023-04-17T16:23:51.378Z,4.90
2023-04-17T16:26:18.196Z,5.47
2023-04-17T16:28:45.836Z,4.82
2023-04-17T16:31:16.886Z,5.18
2023-04-17T16:33:44.027Z,5.63
2023-04-17T16:36:10.768Z,5.18
2023-04-17T16:38:38.769Z,5.85
2023-04-17T16:41:05.586Z,4.97
2023-04-17T16:43:32.244Z,4.90
2023-04-17T16:45:59.663Z,5.22
2023-04-17T16:48:28.696Z,5.72
2023-04-17T16:51:03.688Z,5.40
2023-04-17T16:53:30.566Z,5.85
2023-04-17T16:55:57.466Z,5.03
2023-04-17T16:58:24.629Z,5.45
2023-04-17T17:00:51.702Z,6.15
2023-04-17T17:03:18.817Z,4.72
2023-04-17T17:05:45.660Z,4.60
2023-04-17T17:08:13.512Z,5.82
2023-04-17T17:10:40.418Z,4.45
2023-04-17T17:13:07.142Z,5.75
2023-04-17T17:15:34.008Z,4.65
2023-04-17T17:18:00.657Z,4.95
2023-04-17T17:20:27.451Z,4.70
2023-04-17T17:22:54.287Z,4.10
2023-04-17T17:25:20.948Z,4.18
2023-04-17T17:27:47.629Z,8.20
2023-04-17T17:30:14.452Z,4.10
2023-04-17T17:32:41.173Z,6.93
2023-04-17T17:35:08.365Z,6.10
2023-04-17T17:37:35.239Z,5.32
2023-04-17T17:40:04.277Z,6.13
2023-04-17T17:42:31.134Z,5.50
2023-04-17T17:44:57.898Z,5.20
2023-04-17T17:47:24.559Z,4.57
2023-04-17T17:49:51.341Z,4.53
2023-04-17T17:52:18.118Z,6.25
2023-04-17T17:54:44.759Z,4.82
2023-04-17T17:57:11.428Z,6.10
2023-04-17T17:59:38.258Z,7.00
2023-04-17T18:02:05.029Z,5.38
2023-04-17T18:04:31.940Z,5.95
2023-04-17T18:06:58.790Z,5.90
2023-04-17T18:09:25.498Z,4.70
2023-04-17T18:11:52.145Z,4.72
2023-04-17T18:14:18.806Z,4.13
2023-04-17T18:16:45.486Z,5.63
2023-04-17T18:19:12.367Z,5.55
2023-04-17T18:21:39.413Z,4.65
2023-04-17T18:24:06.541Z,5.20
2023-04-17T18:26:34.158Z,4.90
2023-04-17T18:29:00.873Z,3.80
2023-04-17T18:31:28.494Z,5.60
2023-04-17T18:33:55.378Z,4.45
2023-04-17T18:36:22.275Z,4.40
2023-04-17T18:38:49.022Z,4.35
2023-04-17T18:41:15.915Z,5.93
2023-04-17T18:43:42.604Z,4.15
2023-04-17T18:46:09.402Z,3.80
2023-04-17T18:48:36.425Z,3.88
2023-04-17T18:51:11.143Z,3.72
2023-04-17T18:53:37.999Z,4.15
2023-04-17T18:56:04.720Z,3.92
2023-04-17T18:58:31.557Z,4.15
2023-04-17T19:00:58.236Z,4.50
2023-04-17T19:03:25.070Z,3.70
2023-04-17T19:05:51.815Z,3.65
2023-04-17T19:08:18.471Z,3.88
2023-04-17T19:10:45.239Z,3.85
2023-04-17T19:13:12.029Z,3.63
2023-04-17T19:15:39.431Z,3.88
2023-04-17T19:18:06.832Z,4.40
2023-04-17T19:20:33.776Z,4.80
2023-04-17T19:23:01.105Z,4.10
2023-04-17T19:25:28.085Z,3.95
2023-04-17T19:27:54.912Z,3.95
2023-04-17T19:30:21.686Z,4.28
2023-04-17T19:32:48.361Z,4.30
2023-04-17T19:35:15.254Z,3.95
2023-04-17T19:37:41.917Z,4.13
2023-04-17T19:40:21.438Z,4.07
2023-04-17T19:42:50.910Z,5.63
2023-04-17T19:45:17.653Z,5.63
2023-04-17T19:47:44.324Z,4.63
2023-04-17T19:50:11.884Z,4.53
2023-04-17T19:52:38.502Z,5.90
2023-04-17T19:55:08.105Z,4.35
2023-04-17T19:57:35.386Z,4.90
2023-04-17T20:00:04.000Z,5.57
2023-04-17T20:02:31.019Z,4.35
2023-04-17T20:04:57.919Z,5.38
2023-04-17T20:07:24.622Z,4.68
2023-04-17T20:09:51.532Z,6.13
2023-04-17T20:12:19.731Z,5.60
2023-04-17T20:14:46.918Z,5.97
2023-04-17T20:17:13.794Z,4.85
2023-04-17T20:19:40.751Z,5.07
2023-04-17T20:22:08.257Z,5.05
2023-04-17T20:24:35.299Z,5.90
2023-04-17T20:27:02.241Z,4.70
2023-04-17T20:29:31.066Z,5.07
2023-04-17T20:31:58.053Z,5.18
2023-04-17T20:34:26.760Z,4.60
2023-04-17T20:36:53.487Z,6.93
2023-04-17T20:39:20.219Z,4.57
2023-04-17T20:41:47.547Z,4.10
2023-04-17T20:44:15.682Z,4.57
2023-04-17T20:46:42.502Z,4.57
2023-04-17T20:49:09.282Z,3.92
2023-04-17T20:51:35.988Z,4.50
2023-04-17T20:54:02.865Z,4.57
2023-04-17T20:56:29.615Z,4.65
2023-04-17T20:58:56.703Z,4.38
2023-04-17T21:01:23.567Z,4.97
2023-04-17T21:03:50.477Z,3.83
2023-04-17T21:06:17.857Z,3.53
2023-04-17T21:08:44.569Z,6.70
2023-04-17T21:11:11.250Z,4.63
2023-04-17T21:13:37.878Z,3.47
2023-04-17T21:16:05.010Z,3.28
2023-04-17T21:18:31.815Z,3.70
2023-04-17T21:20:58.529Z,6.35
2023-04-17T21:23:25.319Z,3.33
2023-04-17T21:25:53.804Z,4.30
2023-04-17T21:28:21.075Z,4.65
2023-04-17T21:30:47.924Z,4.85
2023-04-17T21:33:14.679Z,3.25
2023-04-17T21:35:41.358Z,4.20
2023-04-17T21:38:08.170Z,3.75
2023-04-17T21:40:36.989Z,5.50
2023-04-17T21:43:04.340Z,2.95
2023-04-17T21:45:31.991Z,4.13
2023-04-17T21:47:58.776Z,4.03
2023-04-17T21:50:25.445Z,3.22
2023-04-17T21:52:52.198Z,3.42
2023-04-17T21:55:19.014Z,3.45
2023-04-17T21:57:45.534Z,3.22
2023-04-17T22:00:12.640Z,3.80
2023-04-17T22:02:39.430Z,3.63
2023-04-17T22:05:06.259Z,4.15
2023-04-17T22:07:38.078Z,5.03
2023-04-17T22:10:10.914Z,4.20
2023-04-17T22:12:37.583Z,3.35
2023-04-17T22:15:04.509Z,4.93
2023-04-17T22:17:31.482Z,6.10
2023-04-17T22:19:58.063Z,4.03
2023-04-17T22:22:24.574Z,5.43
2023-04-17T22:24:51.829Z,3.22
2023-04-17T22:27:18.443Z,4.30
2023-04-17T22:29:45.021Z,3.97
2023-04-17T22:32:11.782Z,3.65
2023-04-17T22:34:39.987Z,3.13
2023-04-17T22:37:07.759Z,3.60
2023-04-17T22:39:34.655Z,4.80
2023-04-17T22:42:01.239Z,3.28
2023-04-17T22:44:28.123Z,3.25
2023-04-17T22:46:54.754Z,3.50
2023-04-17T22:49:21.397Z,2.60
2023-04-17T22:51:48.049Z,4.70
2023-04-17T22:54:22.190Z,2.72
2023-04-17T22:56:49.531Z,4.43
2023-04-17T22:59:16.258Z,5.10
2023-04-17T23:01:42.882Z,2.88
2023-04-17T23:04:10.469Z,2.97
2023-04-17T23:06:37.367Z,3.63
2023-04-17T23:09:04.920Z,4.38
2023-04-17T23:11:32.586Z,3.25
2023-04-17T23:13:59.620Z,4.57
2023-04-17T23:16:26.322Z,3.05
2023-04-17T23:18:52.961Z,3.70
2023-04-17T23:21:19.881Z,3.97
2023-04-17T23:23:48.125Z,5.32
2023-04-17T23:26:15.329Z,3.95
2023-04-17T23:28:42.044Z,4.43
2023-04-17T23:31:08.880Z,5.05
2023-04-17T23:33:35.671Z,3.90
2023-04-17T23:36:02.601Z,3.75
2023-04-17T23:38:29.325Z,3.88
2023-04-17T23:40:55.856Z,3.97
2023-04-17T23:43:22.593Z,5.70
2023-04-17T23:45:49.237Z,4.20
2023-04-17T23:48:15.907Z,3.78
2023-04-17T23:50:42.648Z,4.32
2023-04-17T23:53:09.356Z,5.75
2023-04-17T23:55:35.918Z,4.15
2023-04-17T23:58:02.893Z,3.75
